sensor_id;sensor_type;location;lat;lon;timestamp;P1;durP1;ratioP1;P2;durP2;ratioP2
9040;SDS011;4555;49.918;7.012;2022-10-19T00:00:29;1.30;;;1.13;;
9040;SDS011;4555;49.918;7.012;2022-10-19T00:02:54;0.83;;;0.83;;
9040;SDS011;4555;49.918;7.012;2022-10-19T00:05:20;2.27;;;1.03;;
9040;SDS011;4555;49.918;7.012;2022-10-19T00:07:46;1.23;;;1.00;;
9040;SDS011;4555;49.918;7.012;2022-10-19T00:10:12;0.80;;;0.70;;
9040;SDS011;4555;49.918;7.012;2022-10-19T00:12:38;1.07;;;1.07;;
9040;SDS011;4555;49.918;7.012;2022-10-19T00:15:04;1.67;;;1.57;;
9040;SDS011;4555;49.918;7.012;2022-10-19T00:17:30;1.07;;;1.07;;
9040;SDS011;4555;49.918;7.012;2022-10-19T00:19:56;2.00;;;0.83;;
9040;SDS011;4555;49.918;7.012;2022-10-19T00:22:22;0.83;;;0.83;;
9040;SDS011;4555;49.918;7.012;2022-10-19T00:24:48;1.37;;;1.30;;
9040;SDS011;4555;49.918;7.012;2022-10-19T00:27:14;0.87;;;0.87;;
9040;SDS011;4555;49.918;7.012;2022-10-19T00:29:40;1.77;;;1.67;;
9040;SDS011;4555;49.918;7.012;2022-10-19T00:32:05;1.37;;;1.27;;
9040;SDS011;4555;49.918;7.012;2022-10-19T00:34:31;1.43;;;0.97;;
9040;SDS011;4555;49.918;7.012;2022-10-19T00:36:57;2.20;;;1.17;;
9040;SDS011;4555;49.918;7.012;2022-10-19T00:39:23;2.87;;;2.37;;
9040;SDS011;4555;49.918;7.012;2022-10-19T00:41:49;0.77;;;0.70;;
9040;SDS011;4555;49.918;7.012;2022-10-19T00:46:45;2.40;;;2.07;;
9040;SDS011;4555;49.918;7.012;2022-10-19T00:49:15;1.30;;;1.23;;
9040;SDS011;4555;49.918;7.012;2022-10-19T00:51:45;1.13;;;0.70;;
9040;SDS011;4555;49.918;7.012;2022-10-19T00:54:13;1.90;;;1.80;;
9040;SDS011;4555;49.918;7.012;2022-10-19T00:56:41;0.20;;;0.20;;
9040;SDS011;4555;49.918;7.012;2022-10-19T00:59:08;0.87;;;0.70;;
9040;SDS011;4555;49.918;7.012;2022-10-19T01:01:34;1.87;;;1.13;;
9040;SDS011;4555;49.918;7.012;2022-10-19T01:04:01;0.47;;;0.47;;
9040;SDS011;4555;49.918;7.012;2022-10-19T01:06:27;0.33;;;0.33;;
9040;SDS011;4555;49.918;7.012;2022-10-19T01:08:53;1.00;;;0.90;;
9040;SDS011;4555;49.918;7.012;2022-10-19T01:11:25;0.70;;;0.70;;
9040;SDS011;4555;49.918;7.012;2022-10-19T01:17:03;0.77;;;0.77;;
9040;SDS011;4555;49.918;7.012;2022-10-19T01:22:47;1.93;;;1.83;;
9040;SDS011;4555;49.918;7.012;2022-10-19T01:28:43;1.90;;;1.67;;
9040;SDS011;4555;49.918;7.012;2022-10-19T01:31:39;2.10;;;1.90;;
9040;SDS011;4555;49.918;7.012;2022-10-19T01:34:33;3.60;;;2.20;;
9040;SDS011;4555;49.918;7.012;2022-10-19T01:37:20;1.80;;;1.70;;
9040;SDS011;4555;49.918;7.012;2022-10-19T01:39:57;2.00;;;1.80;;
9040;SDS011;4555;49.918;7.012;2022-10-19T01:42:41;1.60;;;1.50;;
9040;SDS011;4555;49.918;7.012;2022-10-19T01:45:37;1.40;;;1.30;;
9040;SDS011;4555;49.918;7.012;2022-10-19T01:48:10;3.00;;;2.20;;
9040;SDS011;4555;49.918;7.012;2022-10-19T01:50:44;5.50;;;2.93;;
9040;SDS011;4555;49.918;7.012;2022-10-19T01:53:18;3.17;;;2.60;;
9040;SDS011;4555;49.918;7.012;2022-10-19T01:55:44;2.67;;;2.47;;
9040;SDS011;4555;49.918;7.012;2022-10-19T01:58:15;5.07;;;3.07;;
9040;SDS011;4555;49.918;7.012;2022-10-19T02:00:44;3.83;;;2.30;;
9040;SDS011;4555;49.918;7.012;2022-10-19T02:03:12;3.30;;;2.87;;
9040;SDS011;4555;49.918;7.012;2022-10-19T02:05:39;3.50;;;3.20;;
9040;SDS011;4555;49.918;7.012;2022-10-19T02:08:10;3.23;;;2.93;;
9040;SDS011;4555;49.918;7.012;2022-10-19T02:10:38;3.13;;;1.80;;
9040;SDS011;4555;49.918;7.012;2022-10-19T02:13:07;3.33;;;3.03;;
9040;SDS011;4555;49.918;7.012;2022-10-19T02:15:35;6.03;;;3.43;;
9040;SDS011;4555;49.918;7.012;2022-10-19T02:18:03;3.67;;;3.13;;
9040;SDS011;4555;49.918;7.012;2022-10-19T02:20:31;5.67;;;1.90;;
9040;SDS011;4555;49.918;7.012;2022-10-19T02:22:58;3.10;;;2.03;;
9040;SDS011;4555;49.918;7.012;2022-10-19T02:25:24;3.57;;;3.20;;
9040;SDS011;4555;49.918;7.012;2022-10-19T02:27:50;8.43;;;3.57;;
9040;SDS011;4555;49.918;7.012;2022-10-19T02:30:17;5.10;;;3.07;;
9040;SDS011;4555;49.918;7.012;2022-10-19T02:32:44;6.10;;;3.27;;
9040;SDS011;4555;49.918;7.012;2022-10-19T02:35:10;8.60;;;3.93;;
9040;SDS011;4555;49.918;7.012;2022-10-19T02:37:38;4.20;;;2.70;;
9040;SDS011;4555;49.918;7.012;2022-10-19T02:40:05;4.07;;;2.80;;
9040;SDS011;4555;49.918;7.012;2022-10-19T02:42:36;6.83;;;3.23;;
9040;SDS011;4555;49.918;7.012;2022-10-19T02:45:17;2.43;;;2.23;;
9040;SDS011;4555;49.918;7.012;2022-10-19T02:50:26;4.27;;;2.93;;
9040;SDS011;4555;49.918;7.012;2022-10-19T02:52:52;4.07;;;3.00;;
9040;SDS011;4555;49.918;7.012;2022-10-19T02:55:18;6.83;;;3.83;;
9040;SDS011;4555;49.918;7.012;2022-10-19T02:57:43;4.60;;;3.53;;
9040;SDS011;4555;49.918;7.012;2022-10-19T03:00:09;2.97;;;2.57;;
9040;SDS011;4555;49.918;7.012;2022-10-19T03:02:35;3.97;;;2.87;;
9040;SDS011;4555;49.918;7.012;2022-10-19T03:05:02;2.87;;;2.67;;
9040;SDS011;4555;49.918;7.012;2022-10-19T03:07:28;3.87;;;3.27;;
9040;SDS011;4555;49.918;7.012;2022-10-19T03:09:54;2.83;;;2.63;;
9040;SDS011;4555;49.918;7.012;2022-10-19T03:12:19;3.27;;;2.10;;
9040;SDS011;4555;49.918;7.012;2022-10-19T03:14:45;4.13;;;2.90;;
9040;SDS011;4555;49.918;7.012;2022-10-19T03:17:11;7.27;;;2.30;;
9040;SDS011;4555;49.918;7.012;2022-10-19T03:19:37;4.33;;;3.00;;
9040;SDS011;4555;49.918;7.012;2022-10-19T03:22:03;6.70;;;3.30;;
9040;SDS011;4555;49.918;7.012;2022-10-19T03:24:29;3.30;;;2.47;;
9040;SDS011;4555;49.918;7.012;2022-10-19T03:26:55;3.93;;;2.37;;
9040;SDS011;4555;49.918;7.012;2022-10-19T03:29:21;4.67;;;2.93;;
9040;SDS011;4555;49.918;7.012;2022-10-19T03:31:47;5.40;;;3.37;;
9040;SDS011;4555;49.918;7.012;2022-10-19T03:34:13;3.17;;;2.90;;
9040;SDS011;4555;49.918;7.012;2022-10-19T03:36:39;4.83;;;2.70;;
9040;SDS011;4555;49.918;7.012;2022-10-19T03:39:12;4.33;;;2.43;;
9040;SDS011;4555;49.918;7.012;2022-10-19T03:41:40;4.83;;;3.37;;
9040;SDS011;4555;49.918;7.012;2022-10-19T03:44:06;2.70;;;2.50;;
9040;SDS011;4555;49.918;7.012;2022-10-19T03:46:34;2.33;;;2.17;;
9040;SDS011;4555;49.918;7.012;2022-10-19T03:49:00;4.10;;;2.90;;
9040;SDS011;4555;49.918;7.012;2022-10-19T03:51:27;2.70;;;2.50;;
9040;SDS011;4555;49.918;7.012;2022-10-19T03:53:55;2.43;;;2.23;;
9040;SDS011;4555;49.918;7.012;2022-10-19T03:56:26;4.60;;;3.53;;
9040;SDS011;4555;49.918;7.012;2022-10-19T03:58:53;2.80;;;2.07;;
9040;SDS011;4555;49.918;7.012;2022-10-19T04:01:43;2.50;;;2.03;;
9040;SDS011;4555;49.918;7.012;2022-10-19T04:04:12;2.00;;;1.90;;
9040;SDS011;4555;49.918;7.012;2022-10-19T04:06:39;3.83;;;1.93;;
9040;SDS011;4555;49.918;7.012;2022-10-19T04:09:08;2.67;;;2.13;;
9040;SDS011;4555;49.918;7.012;2022-10-19T04:11:38;2.57;;;1.70;;
9040;SDS011;4555;49.918;7.012;2022-10-19T04:14:04;4.70;;;3.40;;
9040;SDS011;4555;49.918;7.012;2022-10-19T04:16:30;4.57;;;1.87;;
9040;SDS011;4555;49.918;7.012;2022-10-19T04:18:56;1.77;;;1.43;;
9040;SDS011;4555;49.918;7.012;2022-10-19T04:24:05;2.77;;;2.03;;
9040;SDS011;4555;49.918;7.012;2022-10-19T04:26:45;3.53;;;2.50;;
9040;SDS011;4555;49.918;7.012;2022-10-19T04:29:13;2.33;;;2.13;;
9040;SDS011;4555;49.918;7.012;2022-10-19T04:31:40;1.93;;;1.80;;
9040;SDS011;4555;49.918;7.012;2022-10-19T04:34:07;2.73;;;1.93;;
9040;SDS011;4555;49.918;7.012;2022-10-19T04:36:33;3.43;;;2.17;;
9040;SDS011;4555;49.918;7.012;2022-10-19T04:38:59;2.87;;;2.40;;
9040;SDS011;4555;49.918;7.012;2022-10-19T04:41:25;2.97;;;2.17;;
9040;SDS011;4555;49.918;7.012;2022-10-19T04:43:54;4.50;;;2.53;;
9040;SDS011;4555;49.918;7.012;2022-10-19T04:46:23;2.13;;;1.73;;
9040;SDS011;4555;49.918;7.012;2022-10-19T04:48:49;2.27;;;2.07;;
9040;SDS011;4555;49.918;7.012;2022-10-19T04:51:15;3.17;;;2.23;;
9040;SDS011;4555;49.918;7.012;2022-10-19T04:53:42;2.73;;;1.80;;
9040;SDS011;4555;49.918;7.012;2022-10-19T04:56:10;2.00;;;1.80;;
9040;SDS011;4555;49.918;7.012;2022-10-19T04:58:47;2.53;;;2.43;;
9040;SDS011;4555;49.918;7.012;2022-10-19T05:01:16;5.20;;;3.13;;
9040;SDS011;4555;49.918;7.012;2022-10-19T05:03:44;2.13;;;1.93;;
9040;SDS011;4555;49.918;7.012;2022-10-19T05:06:11;1.37;;;1.27;;
9040;SDS011;4555;49.918;7.012;2022-10-19T05:08:38;3.43;;;2.47;;
9040;SDS011;4555;49.918;7.012;2022-10-19T05:11:05;1.83;;;1.47;;
9040;SDS011;4555;49.918;7.012;2022-10-19T05:13:32;3.30;;;3.00;;
9040;SDS011;4555;49.918;7.012;2022-10-19T05:15:59;1.93;;;1.83;;
9040;SDS011;4555;49.918;7.012;2022-10-19T05:18:26;1.67;;;1.57;;
9040;SDS011;4555;49.918;7.012;2022-10-19T05:23:49;1.80;;;1.70;;
9040;SDS011;4555;49.918;7.012;2022-10-19T05:26:17;4.67;;;1.93;;
9040;SDS011;4555;49.918;7.012;2022-10-19T05:28:47;3.33;;;2.27;;
9040;SDS011;4555;49.918;7.012;2022-10-19T05:31:15;5.10;;;2.20;;
9040;SDS011;4555;49.918;7.012;2022-10-19T05:33:42;4.73;;;2.27;;
9040;SDS011;4555;49.918;7.012;2022-10-19T05:36:12;4.80;;;2.90;;
9040;SDS011;4555;49.918;7.012;2022-10-19T05:38:38;2.67;;;2.30;;
9040;SDS011;4555;49.918;7.012;2022-10-19T05:41:04;3.33;;;2.67;;
9040;SDS011;4555;49.918;7.012;2022-10-19T05:43:30;2.63;;;2.43;;
9040;SDS011;4555;49.918;7.012;2022-10-19T05:45:56;1.67;;;1.57;;
9040;SDS011;4555;49.918;7.012;2022-10-19T05:48:21;2.67;;;2.00;;
9040;SDS011;4555;49.918;7.012;2022-10-19T05:50:54;3.37;;;1.90;;
9040;SDS011;4555;49.918;7.012;2022-10-19T05:53:19;5.47;;;1.90;;
9040;SDS011;4555;49.918;7.012;2022-10-19T05:55:45;2.00;;;1.90;;
9040;SDS011;4555;49.918;7.012;2022-10-19T05:58:11;2.17;;;1.93;;
9040;SDS011;4555;49.918;7.012;2022-10-19T06:00:37;3.13;;;2.13;;
9040;SDS011;4555;49.918;7.012;2022-10-19T06:03:03;2.77;;;1.93;;
9040;SDS011;4555;49.918;7.012;2022-10-19T06:05:28;2.00;;;1.80;;
9040;SDS011;4555;49.918;7.012;2022-10-19T06:07:54;3.87;;;2.20;;
9040;SDS011;4555;49.918;7.012;2022-10-19T06:10:20;3.90;;;2.30;;
9040;SDS011;4555;49.918;7.012;2022-10-19T06:12:45;2.43;;;2.03;;
9040;SDS011;4555;49.918;7.012;2022-10-19T06:15:11;2.43;;;2.23;;
9040;SDS011;4555;49.918;7.012;2022-10-19T06:17:37;3.00;;;2.30;;
9040;SDS011;4555;49.918;7.012;2022-10-19T06:20:03;2.13;;;1.87;;
9040;SDS011;4555;49.918;7.012;2022-10-19T06:22:29;1.70;;;1.60;;
9040;SDS011;4555;49.918;7.012;2022-10-19T06:24:55;2.90;;;2.10;;
9040;SDS011;4555;49.918;7.012;2022-10-19T06:27:20;2.80;;;2.57;;
9040;SDS011;4555;49.918;7.012;2022-10-19T06:29:47;2.37;;;2.07;;
9040;SDS011;4555;49.918;7.012;2022-10-19T06:32:12;1.50;;;1.40;;
9040;SDS011;4555;49.918;7.012;2022-10-19T06:34:39;2.20;;;1.97;;
9040;SDS011;4555;49.918;7.012;2022-10-19T06:37:04;2.20;;;2.00;;
9040;SDS011;4555;49.918;7.012;2022-10-19T06:39:30;2.97;;;2.07;;
9040;SDS011;4555;49.918;7.012;2022-10-19T06:41:56;4.20;;;2.40;;
9040;SDS011;4555;49.918;7.012;2022-10-19T06:44:23;2.73;;;2.20;;
9040;SDS011;4555;49.918;7.012;2022-10-19T06:46:49;3.87;;;2.30;;
9040;SDS011;4555;49.918;7.012;2022-10-19T06:49:15;1.97;;;1.87;;
9040;SDS011;4555;49.918;7.012;2022-10-19T06:51:41;3.83;;;1.83;;
9040;SDS011;4555;49.918;7.012;2022-10-19T06:54:07;1.90;;;1.80;;
9040;SDS011;4555;49.918;7.012;2022-10-19T06:56:33;1.67;;;1.57;;
9040;SDS011;4555;49.918;7.012;2022-10-19T06:58:59;2.03;;;1.87;;
9040;SDS011;4555;49.918;7.012;2022-10-19T07:01:25;4.50;;;2.10;;
9040;SDS011;4555;49.918;7.012;2022-10-19T07:03:51;3.13;;;2.20;;
9040;SDS011;4555;49.918;7.012;2022-10-19T07:06:18;2.67;;;2.47;;
9040;SDS011;4555;49.918;7.012;2022-10-19T07:08:44;1.83;;;1.73;;
9040;SDS011;4555;49.918;7.012;2022-10-19T07:11:11;4.60;;;2.10;;
9040;SDS011;4555;49.918;7.012;2022-10-19T07:13:41;4.10;;;1.83;;
9040;SDS011;4555;49.918;7.012;2022-10-19T07:16:08;3.97;;;2.37;;
9040;SDS011;4555;49.918;7.012;2022-10-19T07:18:36;2.83;;;2.03;;
9040;SDS011;4555;49.918;7.012;2022-10-19T07:21:07;2.40;;;1.57;;
9040;SDS011;4555;49.918;7.012;2022-10-19T07:23:35;2.90;;;1.83;;
9040;SDS011;4555;49.918;7.012;2022-10-19T07:26:06;2.10;;;1.90;;
9040;SDS011;4555;49.918;7.012;2022-10-19T07:28:35;2.20;;;2.00;;
9040;SDS011;4555;49.918;7.012;2022-10-19T07:31:05;1.93;;;1.83;;
9040;SDS011;4555;49.918;7.012;2022-10-19T07:33:33;2.03;;;1.60;;
9040;SDS011;4555;49.918;7.012;2022-10-19T07:35:59;5.87;;;2.03;;
9040;SDS011;4555;49.918;7.012;2022-10-19T07:38:27;1.70;;;1.50;;
9040;SDS011;4555;49.918;7.012;2022-10-19T07:41:10;2.70;;;1.70;;
9040;SDS011;4555;49.918;7.012;2022-10-19T07:43:38;2.93;;;1.97;;
9040;SDS011;4555;49.918;7.012;2022-10-19T07:46:06;2.80;;;2.60;;
9040;SDS011;4555;49.918;7.012;2022-10-19T07:48:34;1.80;;;1.70;;
9040;SDS011;4555;49.918;7.012;2022-10-19T07:51:01;2.73;;;2.30;;
9040;SDS011;4555;49.918;7.012;2022-10-19T07:53:28;1.23;;;1.17;;
9040;SDS011;4555;49.918;7.012;2022-10-19T07:55:54;1.50;;;1.40;;
9040;SDS011;4555;49.918;7.012;2022-10-19T07:58:20;1.40;;;1.30;;
9040;SDS011;4555;49.918;7.012;2022-10-19T08:00:46;2.03;;;1.83;;
9040;SDS011;4555;49.918;7.012;2022-10-19T08:03:11;2.30;;;2.10;;
9040;SDS011;4555;49.918;7.012;2022-10-19T08:05:37;3.20;;;1.87;;
9040;SDS011;4555;49.918;7.012;2022-10-19T08:08:03;1.97;;;1.13;;
9040;SDS011;4555;49.918;7.012;2022-10-19T08:10:29;4.40;;;2.13;;
9040;SDS011;4555;49.918;7.012;2022-10-19T08:12:54;2.30;;;2.10;;
9040;SDS011;4555;49.918;7.012;2022-10-19T08:15:20;2.33;;;1.53;;
9040;SDS011;4555;49.918;7.012;2022-10-19T08:17:46;1.40;;;1.40;;
9040;SDS011;4555;49.918;7.012;2022-10-19T08:20:11;1.70;;;1.60;;
9040;SDS011;4555;49.918;7.012;2022-10-19T08:22:37;2.17;;;1.70;;
9040;SDS011;4555;49.918;7.012;2022-10-19T08:25:03;3.23;;;1.57;;
9040;SDS011;4555;49.918;7.012;2022-10-19T08:27:29;2.40;;;2.00;;
9040;SDS011;4555;49.918;7.012;2022-10-19T08:29:55;1.90;;;1.70;;
9040;SDS011;4555;49.918;7.012;2022-10-19T08:32:20;2.13;;;2.03;;
9040;SDS011;4555;49.918;7.012;2022-10-19T08:34:46;1.17;;;1.03;;
9040;SDS011;4555;49.918;7.012;2022-10-19T08:37:12;1.53;;;1.43;;
9040;SDS011;4555;49.918;7.012;2022-10-19T08:39:37;1.50;;;1.40;;
9040;SDS011;4555;49.918;7.012;2022-10-19T08:42:04;1.90;;;1.70;;
9040;SDS011;4555;49.918;7.012;2022-10-19T08:45:01;1.97;;;1.47;;
9040;SDS011;4555;49.918;7.012;2022-10-19T08:50:02;1.20;;;0.93;;
9040;SDS011;4555;49.918;7.012;2022-10-19T08:52:45;1.73;;;1.63;;
9040;SDS011;4555;49.918;7.012;2022-10-19T08:55:16;1.57;;;1.47;;
9040;SDS011;4555;49.918;7.012;2022-10-19T09:03:18;1.90;;;1.37;;
9040;SDS011;4555;49.918;7.012;2022-10-19T09:06:15;1.40;;;1.33;;
9040;SDS011;4555;49.918;7.012;2022-10-19T09:09:13;1.67;;;1.57;;
9040;SDS011;4555;49.918;7.012;2022-10-19T09:11:41;2.50;;;1.33;;
9040;SDS011;4555;49.918;7.012;2022-10-19T09:16:40;1.60;;;1.50;;
9040;SDS011;4555;49.918;7.012;2022-10-19T09:19:23;1.70;;;1.40;;
9040;SDS011;4555;49.918;7.012;2022-10-19T09:21:54;1.07;;;1.07;;
9040;SDS011;4555;49.918;7.012;2022-10-19T09:24:41;2.40;;;1.73;;
9040;SDS011;4555;49.918;7.012;2022-10-19T09:27:24;1.30;;;1.23;;
9040;SDS011;4555;49.918;7.012;2022-10-19T09:29:57;2.67;;;1.90;;
9040;SDS011;4555;49.918;7.012;2022-10-19T09:35:02;1.63;;;1.40;;
9040;SDS011;4555;49.918;7.012;2022-10-19T09:37:39;1.83;;;1.30;;
9040;SDS011;4555;49.918;7.012;2022-10-19T09:40:16;1.13;;;1.13;;
9040;SDS011;4555;49.918;7.012;2022-10-19T09:42:44;2.87;;;1.77;;
9040;SDS011;4555;49.918;7.012;2022-10-19T09:45:12;2.40;;;1.90;;
9040;SDS011;4555;49.918;7.012;2022-10-19T09:47:41;1.67;;;1.53;;
9040;SDS011;4555;49.918;7.012;2022-10-19T09:50:19;1.93;;;1.53;;
9040;SDS011;4555;49.918;7.012;2022-10-19T09:52:45;2.53;;;1.97;;
9040;SDS011;4555;49.918;7.012;2022-10-19T09:57:50;1.70;;;1.60;;
9040;SDS011;4555;49.918;7.012;2022-10-19T10:00:24;1.63;;;1.33;;
9040;SDS011;4555;49.918;7.012;2022-10-19T10:02:56;4.73;;;1.00;;
9040;SDS011;4555;49.918;7.012;2022-10-19T10:05:28;1.70;;;1.57;;
9040;SDS011;4555;49.918;7.012;2022-10-19T10:07:59;1.80;;;1.70;;
9040;SDS011;4555;49.918;7.012;2022-10-19T10:10:29;2.57;;;1.50;;
9040;SDS011;4555;49.918;7.012;2022-10-19T10:13:01;1.60;;;1.50;;
9040;SDS011;4555;49.918;7.012;2022-10-19T10:15:28;2.97;;;1.83;;
9040;SDS011;4555;49.918;7.012;2022-10-19T10:18:14;1.70;;;1.60;;
9040;SDS011;4555;49.918;7.012;2022-10-19T10:20:59;1.20;;;1.13;;
9040;SDS011;4555;49.918;7.012;2022-10-19T10:23:35;1.97;;;1.70;;
9040;SDS011;4555;49.918;7.012;2022-10-19T10:26:02;4.33;;;1.77;;
9040;SDS011;4555;49.918;7.012;2022-10-19T10:28:44;1.90;;;1.80;;
9040;SDS011;4555;49.918;7.012;2022-10-19T10:31:12;2.10;;;1.97;;
9040;SDS011;4555;49.918;7.012;2022-10-19T10:33:38;1.57;;;1.30;;
9040;SDS011;4555;49.918;7.012;2022-10-19T10:36:08;1.57;;;1.47;;
9040;SDS011;4555;49.918;7.012;2022-10-19T10:38:37;1.47;;;1.37;;
9040;SDS011;4555;49.918;7.012;2022-10-19T10:41:11;1.30;;;1.20;;
9040;SDS011;4555;49.918;7.012;2022-10-19T10:46:26;1.10;;;1.10;;
9040;SDS011;4555;49.918;7.012;2022-10-19T10:48:57;1.87;;;1.73;;
9040;SDS011;4555;49.918;7.012;2022-10-19T10:51:31;1.27;;;1.27;;
9040;SDS011;4555;49.918;7.012;2022-10-19T10:54:08;1.63;;;1.40;;
9040;SDS011;4555;49.918;7.012;2022-10-19T10:56:53;2.70;;;1.57;;
9040;SDS011;4555;49.918;7.012;2022-10-19T10:59:31;1.77;;;1.47;;
9040;SDS011;4555;49.918;7.012;2022-10-19T11:02:03;1.37;;;1.27;;
9040;SDS011;4555;49.918;7.012;2022-10-19T11:04:58;1.43;;;1.17;;
9040;SDS011;4555;49.918;7.012;2022-10-19T11:07:29;0.93;;;0.87;;
9040;SDS011;4555;49.918;7.012;2022-10-19T11:09:58;1.53;;;1.43;;
9040;SDS011;4555;49.918;7.012;2022-10-19T11:12:45;1.70;;;1.50;;
9040;SDS011;4555;49.918;7.012;2022-10-19T11:15:27;1.47;;;1.37;;
9040;SDS011;4555;49.918;7.012;2022-10-19T11:18:02;0.87;;;0.80;;
9040;SDS011;4555;49.918;7.012;2022-10-19T11:20:38;1.50;;;1.37;;
9040;SDS011;4555;49.918;7.012;2022-10-19T11:28:31;1.33;;;1.23;;
9040;SDS011;4555;49.918;7.012;2022-10-19T11:33:51;0.83;;;0.83;;
9040;SDS011;4555;49.918;7.012;2022-10-19T11:36:31;1.23;;;1.17;;
9040;SDS011;4555;49.918;7.012;2022-10-19T11:42:11;2.20;;;1.13;;
9040;SDS011;4555;49.918;7.012;2022-10-19T11:44:47;1.37;;;1.23;;
9040;SDS011;4555;49.918;7.012;2022-10-19T11:47:32;1.30;;;1.20;;
9040;SDS011;4555;49.918;7.012;2022-10-19T11:50:26;1.70;;;1.30;;
9040;SDS011;4555;49.918;7.012;2022-10-19T11:58:47;1.53;;;1.43;;
9040;SDS011;4555;49.918;7.012;2022-10-19T12:04:02;1.10;;;1.10;;
9040;SDS011;4555;49.918;7.012;2022-10-19T12:12:39;1.10;;;1.00;;
9040;SDS011;4555;49.918;7.012;2022-10-19T12:18:02;0.83;;;0.83;;
9040;SDS011;4555;49.918;7.012;2022-10-19T12:20:41;2.43;;;1.20;;
9040;SDS011;4555;49.918;7.012;2022-10-19T12:23:24;0.63;;;0.63;;
9040;SDS011;4555;49.918;7.012;2022-10-19T12:26:06;2.23;;;1.03;;
9040;SDS011;4555;49.918;7.012;2022-10-19T12:28:34;0.70;;;0.70;;
9040;SDS011;4555;49.918;7.012;2022-10-19T12:31:03;0.93;;;0.93;;
9040;SDS011;4555;49.918;7.012;2022-10-19T12:36:35;0.57;;;0.37;;
9040;SDS011;4555;49.918;7.012;2022-10-19T12:39:20;0.90;;;0.90;;
9040;SDS011;4555;49.918;7.012;2022-10-19T12:47:27;0.77;;;0.77;;
9040;SDS011;4555;49.918;7.012;2022-10-19T12:49:53;2.10;;;1.40;;
9040;SDS011;4555;49.918;7.012;2022-10-19T12:52:33;0.83;;;0.83;;
9040;SDS011;4555;49.918;7.012;2022-10-19T12:55:44;0.70;;;0.70;;
9040;SDS011;4555;49.918;7.012;2022-10-19T12:57:58;0.70;;;0.60;;
9040;SDS011;4555;49.918;7.012;2022-10-19T13:00:33;1.73;;;1.40;;
9040;SDS011;4555;49.918;7.012;2022-10-19T13:03:20;1.60;;;1.10;;
9040;SDS011;4555;49.918;7.012;2022-10-19T13:05:57;0.97;;;0.97;;
9040;SDS011;4555;49.918;7.012;2022-10-19T13:08:28;1.07;;;1.07;;
9040;SDS011;4555;49.918;7.012;2022-10-19T13:11:01;0.90;;;0.90;;
9040;SDS011;4555;49.918;7.012;2022-10-19T13:13:57;1.47;;;1.37;;
9040;SDS011;4555;49.918;7.012;2022-10-19T13:16:55;2.00;;;1.07;;
9040;SDS011;4555;49.918;7.012;2022-10-19T13:19:24;1.27;;;0.83;;
9040;SDS011;4555;49.918;7.012;2022-10-19T13:22:00;0.50;;;0.50;;
9040;SDS011;4555;49.918;7.012;2022-10-19T13:25:30;0.50;;;0.50;;
9040;SDS011;4555;49.918;7.012;2022-10-19T13:27:49;0.80;;;0.80;;
9040;SDS011;4555;49.918;7.012;2022-10-19T13:41:06;1.13;;;1.10;;
9040;SDS011;4555;49.918;7.012;2022-10-19T13:49:29;0.70;;;0.70;;
9040;SDS011;4555;49.918;7.012;2022-10-19T13:52:05;1.27;;;1.27;;
9040;SDS011;4555;49.918;7.012;2022-10-19T13:55:29;0.80;;;0.70;;
9040;SDS011;4555;49.918;7.012;2022-10-19T13:58:09;0.93;;;0.93;;
9040;SDS011;4555;49.918;7.012;2022-10-19T14:01:02;3.67;;;1.20;;
9040;SDS011;4555;49.918;7.012;2022-10-19T14:06:28;1.17;;;0.97;;
9040;SDS011;4555;49.918;7.012;2022-10-19T14:09:17;0.63;;;0.63;;
9040;SDS011;4555;49.918;7.012;2022-10-19T14:12:06;0.93;;;0.93;;
9040;SDS011;4555;49.918;7.012;2022-10-19T14:14:49;1.23;;;1.00;;
9040;SDS011;4555;49.918;7.012;2022-10-19T14:17:24;1.40;;;1.30;;
9040;SDS011;4555;49.918;7.012;2022-10-19T14:19:55;2.87;;;1.77;;
9040;SDS011;4555;49.918;7.012;2022-10-19T14:27:44;1.00;;;1.00;;
9040;SDS011;4555;49.918;7.012;2022-10-19T14:33:17;0.90;;;0.90;;
9040;SDS011;4555;49.918;7.012;2022-10-19T14:35:45;1.10;;;1.10;;
9040;SDS011;4555;49.918;7.012;2022-10-19T14:38:18;3.90;;;1.27;;
9040;SDS011;4555;49.918;7.012;2022-10-19T14:40:45;0.80;;;0.80;;
9040;SDS011;4555;49.918;7.012;2022-10-19T14:46:01;1.27;;;1.20;;
9040;SDS011;4555;49.918;7.012;2022-10-19T14:48:41;1.50;;;1.40;;
9040;SDS011;4555;49.918;7.012;2022-10-19T14:51:23;1.80;;;1.70;;
9040;SDS011;4555;49.918;7.012;2022-10-19T14:57:46;2.00;;;1.40;;
9040;SDS011;4555;49.918;7.012;2022-10-19T14:59:59;1.00;;;1.00;;
9040;SDS011;4555;49.918;7.012;2022-10-19T15:02:48;0.97;;;0.97;;
9040;SDS011;4555;49.918;7.012;2022-10-19T15:05:23;1.73;;;1.13;;
9040;SDS011;4555;49.918;7.012;2022-10-19T15:07:52;1.03;;;1.03;;
9040;SDS011;4555;49.918;7.012;2022-10-19T15:10:23;1.73;;;1.60;;
9040;SDS011;4555;49.918;7.012;2022-10-19T15:13:00;1.80;;;1.07;;
9040;SDS011;4555;49.918;7.012;2022-10-19T15:15:28;1.17;;;1.07;;
9040;SDS011;4555;49.918;7.012;2022-10-19T15:18:02;1.00;;;0.97;;
9040;SDS011;4555;49.918;7.012;2022-10-19T15:22:58;2.80;;;0.73;;
9040;SDS011;4555;49.918;7.012;2022-10-19T15:25:29;1.60;;;1.50;;
9040;SDS011;4555;49.918;7.012;2022-10-19T15:28:20;1.40;;;1.30;;
9040;SDS011;4555;49.918;7.012;2022-10-19T15:31:31;0.93;;;0.93;;
9040;SDS011;4555;49.918;7.012;2022-10-19T15:33:56;1.90;;;1.37;;
9040;SDS011;4555;49.918;7.012;2022-10-19T15:36:23;2.47;;;1.53;;
9040;SDS011;4555;49.918;7.012;2022-10-19T15:41:26;1.13;;;1.10;;
9040;SDS011;4555;49.918;7.012;2022-10-19T15:43:56;1.60;;;1.50;;
9040;SDS011;4555;49.918;7.012;2022-10-19T15:46:29;2.03;;;1.37;;
9040;SDS011;4555;49.918;7.012;2022-10-19T15:51:42;1.70;;;1.60;;
9040;SDS011;4555;49.918;7.012;2022-10-19T15:54:10;1.87;;;1.10;;
9040;SDS011;4555;49.918;7.012;2022-10-19T15:56:37;2.23;;;2.03;;
9040;SDS011;4555;49.918;7.012;2022-10-19T15:59:11;1.60;;;1.10;;
9040;SDS011;4555;49.918;7.012;2022-10-19T16:01:42;2.13;;;1.77;;
9040;SDS011;4555;49.918;7.012;2022-10-19T16:04:09;1.27;;;1.20;;
9040;SDS011;4555;49.918;7.012;2022-10-19T16:06:36;0.90;;;0.90;;
9040;SDS011;4555;49.918;7.012;2022-10-19T16:09:03;1.47;;;1.37;;
9040;SDS011;4555;49.918;7.012;2022-10-19T16:11:29;4.70;;;2.93;;
9040;SDS011;4555;49.918;7.012;2022-10-19T16:13:57;3.20;;;1.67;;
9040;SDS011;4555;49.918;7.012;2022-10-19T16:18:50;2.00;;;1.37;;
9040;SDS011;4555;49.918;7.012;2022-10-19T16:21:17;1.60;;;1.50;;
9040;SDS011;4555;49.918;7.012;2022-10-19T16:23:43;2.07;;;1.97;;
9040;SDS011;4555;49.918;7.012;2022-10-19T16:26:10;1.93;;;1.60;;
9040;SDS011;4555;49.918;7.012;2022-10-19T16:28:37;1.57;;;1.47;;
9040;SDS011;4555;49.918;7.012;2022-10-19T16:31:03;1.77;;;1.67;;
9040;SDS011;4555;49.918;7.012;2022-10-19T16:33:29;1.97;;;0.90;;
9040;SDS011;4555;49.918;7.012;2022-10-19T16:35:54;1.70;;;1.60;;
9040;SDS011;4555;49.918;7.012;2022-10-19T16:38:20;2.30;;;2.10;;
9040;SDS011;4555;49.918;7.012;2022-10-19T16:40:46;1.73;;;1.53;;
9040;SDS011;4555;49.918;7.012;2022-10-19T16:43:11;1.70;;;1.60;;
9040;SDS011;4555;49.918;7.012;2022-10-19T16:45:40;1.97;;;1.77;;
9040;SDS011;4555;49.918;7.012;2022-10-19T16:48:06;1.30;;;1.30;;
9040;SDS011;4555;49.918;7.012;2022-10-19T16:50:33;1.37;;;1.37;;
9040;SDS011;4555;49.918;7.012;2022-10-19T16:53:03;1.73;;;1.63;;
9040;SDS011;4555;49.918;7.012;2022-10-19T16:55:30;1.23;;;1.23;;
9040;SDS011;4555;49.918;7.012;2022-10-19T16:57:56;2.63;;;1.73;;
9040;SDS011;4555;49.918;7.012;2022-10-19T17:00:21;1.33;;;1.33;;
9040;SDS011;4555;49.918;7.012;2022-10-19T17:02:47;2.00;;;1.87;;
9040;SDS011;4555;49.918;7.012;2022-10-19T17:05:13;1.73;;;1.63;;
9040;SDS011;4555;49.918;7.012;2022-10-19T17:07:38;3.03;;;1.87;;
9040;SDS011;4555;49.918;7.012;2022-10-19T17:10:04;1.80;;;1.70;;
9040;SDS011;4555;49.918;7.012;2022-10-19T17:12:30;1.37;;;1.30;;
9040;SDS011;4555;49.918;7.012;2022-10-19T17:14:56;1.70;;;1.60;;
9040;SDS011;4555;49.918;7.012;2022-10-19T17:17:21;1.40;;;1.40;;
9040;SDS011;4555;49.918;7.012;2022-10-19T17:19:47;1.67;;;1.57;;
9040;SDS011;4555;49.918;7.012;2022-10-19T17:22:12;2.00;;;1.80;;
9040;SDS011;4555;49.918;7.012;2022-10-19T17:24:39;1.73;;;1.53;;
9040;SDS011;4555;49.918;7.012;2022-10-19T17:27:04;1.73;;;1.63;;
9040;SDS011;4555;49.918;7.012;2022-10-19T17:29:30;1.73;;;1.63;;
9040;SDS011;4555;49.918;7.012;2022-10-19T17:31:56;1.43;;;1.07;;
9040;SDS011;4555;49.918;7.012;2022-10-19T17:34:23;2.17;;;1.97;;
9040;SDS011;4555;49.918;7.012;2022-10-19T17:36:48;1.50;;;1.50;;